METAR Data
IDs: Format: Raw Decoded Include TAF

Data at: 0340 UTC 21 Sep 2018

KETH 210332Z AUTO 30010KT 5SM BR OVC005 13/12 A2970 RMK AO2
KETH 210317Z AUTO 29009KT 3SM BR BKN005 OVC014 13/12 A2969 RMK AO2
KETH 210253Z AUTO 30008G14KT 2 1/2SM BR SCT005 OVC012 13/12 A2969 RMK AO2
KETH 210237Z AUTO 29010G14KT 2 1/2SM BR OVC010 13/12 A2968 RMK AO2
KETH 210216Z AUTO 28009KT 7SM BKN011 OVC042 13/12 A2968 RMK AO2
KETH 210152Z AUTO 30007KT 10SM SCT009 OVC046 13/12 A2967 RMK AO2
KETH 210116Z AUTO 32005KT 10SM BKN007 OVC050 13/12 A2965 RMK AO2
KETH 210058Z AUTO 33007KT 10SM SCT007 OVC060 13/12 A2964 RMK AO2
KETH 210042Z AUTO 33007KT 10SM OVC060 13/12 A2963 RMK AO2
KETH 210011Z AUTO 01007KT 10SM OVC060 13/12 A2962 RMK AO2
KETH 202357Z AUTO 01008KT 10SM BKN060 BKN080 13/12 A2962 RMK AO2
KETH 202332Z AUTO 36009KT 10SM -DZ BKN005 BKN070 14/13 A2963 RMK AO2 LTG D
KETH 202315Z AUTO 34011G15KT 10SM -RA BKN005 14/13 A2964 RMK AO2
KETH 202253Z AUTO 31011G16KT 5SM RA BKN005 OVC009 14/13 A2966 RMK AO2 P0001
KETH 202237Z AUTO 32008KT 3SM +RA OVC005 14/13 A2965 RMK AO2 P0001 P0001
KETH 202211Z AUTO 02008KT 7SM RA BKN007 OVC012 15/13 A2963 RMK AO2
KETH 202135Z AUTO 04009KT 4SM RA OVC007 15/13 A2964 RMK AO2 LTG DSNT SE P0
KETH 202114Z AUTO 05007KT 7SM -DZ BKN007 BKN012 OVC017 15/13 A2965 RMK AO2
KETH 202054Z AUTO 05008KT 10SM -RA BKN009 OVC016 15/13 A2967 RMK AO2 LTG D
KETH 202037Z AUTO 06008KT 10SM DZ OVC011 16/14 A2968 RMK AO2
KETH 202015Z AUTO 06007KT 10SM RA OVC009 15/13 A2970 RMK AO2
KETH 201957Z AUTO 06007KT 10SM DZ OVC009 15/13 A2971 RMK AO2
KETH 201936Z AUTO 07007KT 10SM -RA OVC007 15/13 A2973 RMK AO2
KETH 201911Z AUTO 08009G15KT 10SM OVC007 15/13 A2974 RMK AO2
KETH 201852Z AUTO 07012G17KT 10SM OVC007 15/13 A2975 RMK AO2
KETH 201834Z AUTO 08006KT 10SM -DZ OVC007 15/13 A2977 RMK AO2 LTG DSNT E
KETH 201738Z AUTO 09008KT 10SM OVC007 15/13 A2982 RMK AO2
KETH 201719Z AUTO 09007KT 10SM -DZ OVC007 14/13 A2982 RMK AO2
KETH 201656Z AUTO 08010G14KT 10SM -RA OVC007 14/13 A2983 RMK AO2
KETH 201631Z AUTO 08006KT 10SM -RA OVC007 14/12 A2987 RMK AO2
KETH 201540Z AUTO 06006KT 10SM RA BKN007 OVC012 13/12 A2989 RMK AO2
KETH 201514Z AUTO 07005KT 10SM OVC007 13/12 A2990 RMK AO2 LTG DSNT S
KETH 201454Z AUTO 06004KT 4SM BR BKN007 OVC010 13/12 A2991 RMK AO2 LTG DSN P0001
KETH 201434Z AUTO 06003KT 4SM -DZ BKN007 OVC014 13/11 A2992 RMK AO2 P0001
KETH 201414Z AUTO 08005KT 7SM RA BKN007 BKN012 OVC016 12/11 A2992 RMK AO2 P0001
KETH 201356Z AUTO 09004KT 4SM +DZ BKN007 OVC011 13/11 A2993 RMK AO2 P0001 P0001
KETH 201331Z AUTO 09006KT 3SM -RA OVC013 13/11 A2993 RMK AO2
KETH 201317Z AUTO 06006KT 10SM OVC013 13/10 A2993 RMK AO2
KETH 201254Z AUTO 05006KT 10SM OVC013 13/10 A2994 RMK AO2
KETH 201234Z AUTO 05006KT 10SM OVC015 13/10 A2995 RMK AO2
KETH 201211Z AUTO 05006KT 10SM BKN017 OVC032 13/10 A2995 RMK AO2
KETH 201151Z AUTO 05009KT 10SM BKN017 OVC032 13/10 A2995 RMK AO2
KETH 201140Z AUTO 05008KT 10SM OVC017 13/10 A2996 RMK AO2
KETH 201114Z AUTO 05007KT 7SM OVC019 13/10 A2998 RMK AO2
KETH 201055Z AUTO 04007KT 10SM OVC019 13/10 A2998 RMK AO2
KETH 201033Z AUTO 04008KT 10SM BKN024 OVC034 13/10 A2998 RMK AO2
KETH 201012Z AUTO 03008KT 10SM OVC034 13/10 A2998 RMK AO2
KETH 200954Z AUTO 04007KT 10SM OVC036 13/10 A2999 RMK AO2
KETH 200935Z AUTO 03006KT 10SM OVC036 13/10 A3001 RMK AO2
KETH 200911Z AUTO 03006KT 10SM OVC038 13/10 A3001 RMK AO2
KETH 200851Z AUTO 02007KT 10SM OVC040 13/10 A3002 RMK AO2
KETH 200757Z AUTO 02005KT 10SM OVC040 13/10 A3002 RMK AO2
KETH 200732Z AUTO 03005KT 10SM OVC040 13/10 A3003 RMK AO2
KETH 200719Z AUTO 03004KT 10SM OVC040 13/10 A3003 RMK AO2
KETH 200651Z AUTO 01008KT 10SM OVC040 13/10 A3003 RMK AO2
KETH 200633Z AUTO 02007KT 10SM OVC042 13/10 A3004 RMK AO2
KETH 200612Z AUTO 02005KT 10SM BKN042 13/10 A3005 RMK AO2
KETH 200557Z AUTO 02005KT 10SM SCT044 12/10 A3005 RMK AO2
KETH 200532Z AUTO 36003KT 10SM SCT044 12/10 A3005 RMK AO2
KETH 200515Z AUTO 35004KT 10SM OVC044 13/10 A3006 RMK AO2
KETH 200451Z AUTO 03003KT 10SM BKN044 13/10 A3006 RMK AO2
KETH 200433Z AUTO 01007KT 10SM OVC044 14/10 A3005 RMK AO2
KETH 200413Z AUTO 02006KT 10SM OVC044 14/10 A3005 RMK AO2
KETH 200354Z AUTO 03004KT 10SM OVC044 14/10 A3006 RMK AO2
KETH 200334Z AUTO 03005KT 10SM BKN044 14/10 A3006 RMK AO2
KETH 200317Z AUTO 03006KT 10SM SCT044 14/10 A3006 RMK AO2
KETH 200256Z AUTO 04005KT 10SM CLR 14/10 A3007 RMK AO2
KETH 200231Z AUTO 04007KT 10SM SCT044 BKN065 15/10 A3006 RMK AO2
KETH 200215Z AUTO 03006KT 10SM OVC044 16/11 A3006 RMK AO2
KETH 200151Z AUTO 03005KT 10SM OVC044 16/10 A3006 RMK AO2
KETH 200139Z AUTO 03006KT 10SM OVC044 16/10 A3006 RMK AO2
KETH 200113Z AUTO 03006KT 10SM OVC044 16/10 A3006 RMK AO2
KETH 200053Z AUTO 04007KT 10SM OVC044 16/10 A3006 RMK AO2
KETH 200036Z AUTO 04006KT 10SM OVC044 16/10 A3006 RMK AO2
KETH 200011Z AUTO 04006KT 10SM OVC044 16/10 A3006 RMK AO2
KETH 192355Z AUTO 04007KT 10SM OVC042 16/10 A3006 RMK AO2
KETH 192331Z AUTO 05007KT 10SM OVC042 17/10 A3005 RMK AO2
KETH 192314Z AUTO 05008KT 10SM OVC042 17/10 A3005 RMK AO2
KETH 192258Z AUTO 03007KT 10SM SCT031 OVC042 17/10 A3004 RMK AO2
KETH 192238Z AUTO 03007KT 10SM BKN031 OVC042 17/10 A3004 RMK AO2
KETH 192211Z AUTO 04008KT 10SM BKN029 OVC038 17/10 A3004 RMK AO2
KETH 192152Z AUTO 05007KT 10SM BKN029 OVC038 17/10 A3004 RMK AO2
KETH 192138Z AUTO 04010KT 10SM SCT027 OVC038 17/11 A3003 RMK AO2
KETH 192114Z AUTO 01007KT 10SM SCT025 OVC036 17/11 A3002 RMK AO2
KETH 192054Z AUTO 05006KT 10SM SCT025 OVC034 16/12 A3003 RMK AO2
KETH 192033Z AUTO 04003KT 10SM -DZ OVC032 16/12 A3003 RMK AO2
KETH 192013Z AUTO 05004KT 10SM RA OVC030 15/12 A3004 RMK AO2
KETH 191953Z AUTO 06006KT 10SM OVC026 15/12 A3004 RMK AO2
KETH 191937Z AUTO 08008KT 10SM BKN026 14/12 A3003 RMK AO2
KETH 191918Z AUTO 07010KT 10SM SCT016 BKN024 14/12 A3004 RMK AO2
KETH 191851Z AUTO 05004KT 10SM -DZ BKN018 OVC025 14/12 A3006 RMK AO2
KETH 191835Z AUTO 05004KT 7SM DZ BKN020 OVC025 14/12 A3005 RMK AO2
KETH 191812Z AUTO 04006KT 7SM RA OVC023 14/11 A3004 RMK AO2
KETH 191757Z AUTO 04009KT 10SM OVC021 14/11 A3005 RMK AO2
KETH 191735Z AUTO 03008G15KT 10SM OVC021 14/11 A3004 RMK AO2
KETH 191711Z AUTO 03008KT 10SM OVC019 14/12 A3003 RMK AO2
KETH 191656Z AUTO 05009KT 10SM OVC017 14/12 A3003 RMK AO2
KETH 191631Z AUTO 35009KT 10SM -RA OVC018 14/12 A3005 RMK AO2
KETH 191614Z AUTO 04009KT 10SM OVC018 14/12 A3003 RMK AO2
KETH 191557Z AUTO 04008KT 10SM -RA OVC018 14/13 A3003 RMK AO2